Time;durP1;ratioP1;P1;durP2;ratioP2;P2;SDS_P1;SDS_P2;PMS_P1;PMS_P2;Temp;Humidity;BMP_temperature;BMP_pressure;BME280_temperature;BME280_humidity;BME280_pressure;Samples;Min_cycle;Max_cycle;Signal;HPM_P1;HPM_P2
2024/04/07 00:02:16;;;;;;;;;;;;;;;;;;5099351;27;19915;-75
2024/04/07 00:04:41;;;;;;;;;;;;;;;;;;5093776;27;20220;-75
2024/04/07 00:07:06;;;;;;;;;;;;;;;;;;5082021;27;20021;-77
2024/04/07 00:09:31;;;;;;;;;;;;;;;;;;5098244;27;20288;-76
2024/04/07 00:11:57;;;;;;;;;;;;;;;;;;5067708;28;19924;-77
2024/04/07 00:14:22;;;;;;;;;;;;;;;;;;5077502;27;22137;-75
2024/04/07 00:16:47;;;;;;;;;;;;;;;;;;5083544;27;19966;-76
2024/04/07 00:19:12;;;;;;;;;;;;;;;;;;5078101;27;20340;-76
2024/04/07 00:21:39;;;;;;;;;;;;;;;;;;5099005;27;19980;-75
2024/04/07 00:24:05;;;;;;;;;;;;;;;;;;5082692;27;20019;-76
2024/04/07 00:26:30;;;;;;;;;;;;;;;;;;5098777;27;19920;-76
2024/04/07 00:28:55;;;;;;;;;;;;;;;;;;5099577;27;19920;-75
2024/04/07 00:31:20;;;;;;;;;;;;;;;;;;5100241;27;19926;-76
2024/04/07 00:33:46;;;;;;;;;;;;;;;;;;5072743;28;20027;-76
2024/04/07 00:36:11;;;;;;;;;;;;;;;;;;5079164;28;19963;-76
2024/04/07 00:38:36;;;;;;;;;;;;;;;;;;5099872;27;19919;-76
2024/04/07 00:41:02;;;;;;;;;;;;;;;;;;5099915;27;19976;-76
2024/04/07 00:43:27;;;;;;;;;;;;;;;;;;5066850;27;19926;-76
2024/04/07 00:45:52;;;;;;;;;;;;;;;;;;5092145;27;19920;-76
2024/04/07 00:48:17;;;;;;;;;;;;;;;;;;5096153;27;19916;-76
2024/04/07 00:50:43;;;;;;;;;;;;;;;;;;5098061;27;19930;-76
2024/04/07 00:53:08;;;;;;;;;;;;;;;;;;5098404;27;19912;-77
2024/04/07 00:55:33;;;;;;;;;;;;;;;;;;5063212;27;19920;-78
2024/04/07 00:57:59;;;;;;;;;;;;;;;;;;5099217;27;19919;-77
2024/04/07 01:00:27;;;;;;;;;;;;;;;;;;5101111;27;19916;-77
2024/04/07 01:02:53;;;;;;;;;;;;;;;;;;5075389;27;20274;-77
2024/04/07 01:05:18;;;;;;;;;;;;;;;;;;5096343;27;20397;-77
2024/04/07 01:07:43;;;;;;;;;;;;;;;;;;5081315;27;19974;-76
2024/04/07 01:10:09;;;;;;;;;;;;;;;;;;5098296;27;19915;-73
2024/04/07 01:12:34;;;;;;;;;;;;;;;;;;5081795;27;20541;-75
2024/04/07 01:14:59;;;;;;;;;;;;;;;;;;5083527;27;21448;-76
2024/04/07 01:17:24;;;;;;;;;;;;;;;;;;5093453;27;19928;-77
2024/04/07 01:19:50;;;;;;;;;;;;;;;;;;5075346;27;19934;-77
2024/04/07 01:22:15;;;;;;;;;;;;;;;;;;5098082;27;19927;-79
2024/04/07 01:24:40;;;;;;;;;;;;;;;;;;5080255;27;20010;-77
2024/04/07 01:27:05;;;;;;;;;;;;;;;;;;5100633;27;19923;-77
2024/04/07 01:29:31;;;;;;;;;;;;;;;;;;5100239;27;20350;-78
2024/04/07 01:31:58;;;;;;;;;;;;;;;;;;5099055;27;19995;-76
2024/04/07 01:34:24;;;;;;;;;;;;;;;;;;5088773;27;20341;-78
2024/04/07 01:36:49;;;;;;;;;;;;;;;;;;5099822;27;19920;-77
2024/04/07 01:39:14;;;;;;;;;;;;;;;;;;5095073;27;19916;-73
2024/04/07 01:41:42;;;;;;;;;;;;;;;;;;5070224;27;20000;-74
2024/04/07 01:44:08;;;;;;;;;;;;;;;;;;5074263;27;19919;-78
2024/04/07 01:46:33;;;;;;;;;;;;;;;;;;5075918;27;19926;-78
2024/04/07 01:48:59;;;;;;;;;;;;;;;;;;5076194;27;19923;-73
2024/04/07 01:51:24;;;;;;;;;;;;;;;;;;5080449;28;20823;-76
2024/04/07 01:53:50;;;;;;;;;;;;;;;;;;5099086;27;20042;-77
2024/04/07 01:56:17;;;;;;;;;;;;;;;;;;5080197;28;20296;-73
2024/04/07 01:58:45;;;;;;;;;;;;;;;;;;5080972;27;19922;-72
2024/04/07 02:01:11;;;;;;;;;;;;;;;;;;5099292;27;19922;-73
2024/04/07 02:03:36;;;;;;;;;;;;;;;;;;5094342;27;19919;-72
2024/04/07 02:06:03;;;;;;;;;;;;;;;;;;5081722;27;19922;-73
2024/04/07 02:08:31;;;;;;;;;;;;;;;;;;5089730;27;19942;-73
2024/04/07 02:10:57;;;;;;;;;;;;;;;;;;5056876;28;19920;-77
2024/04/07 02:13:22;;;;;;;;;;;;;;;;;;5097061;27;20030;-74
2024/04/07 02:15:48;;;;;;;;;;;;;;;;;;5076460;28;20022;-76
2024/04/07 02:18:14;;;;;;;;;;;;;;;;;;5053085;27;20252;-74
2024/04/07 02:20:39;;;;;;;;;;;;;;;;;;5094733;27;19928;-74
2024/04/07 02:23:04;;;;;;;;;;;;;;;;;;5098052;27;20293;-76
2024/04/07 02:25:30;;;;;;;;;;;;;;;;;;5098082;28;20011;-75
2024/04/07 02:27:58;;;;;;;;;;;;;;;;;;5080771;28;20011;-74
2024/04/07 02:30:23;;;;;;;;;;;;;;;;;;5098418;27;19919;-76
2024/04/07 02:32:48;;;;;;;;;;;;;;;;;;5065805;28;19915;-73
2024/04/07 02:35:32;;;;;;;;;;;;;;;;;;5097740;28;20006;-71
2024/04/07 02:37:58;;;;;;;;;;;;;;;;;;5091074;28;19920;-77
2024/04/07 02:40:24;;;;;;;;;;;;;;;;;;5079781;28;19922;-76
2024/04/07 02:48:49;;;;;;;;;;;;;;;;;;5094569;28;19920;-75
2024/04/07 02:51:15;;;;;;;;;;;;;;;;;;5081075;28;20476;-75
2024/04/07 02:53:40;;;;;;;;;;;;;;;;;;5078200;28;20228;-75
2024/04/07 02:56:05;;;;;;;;;;;;;;;;;;5080065;28;20038;-75
2024/04/07 02:58:31;;;;;;;;;;;;;;;;;;5098668;28;20885;-78
2024/04/07 03:00:56;;;;;;;;;;;;;;;;;;5095490;28;21548;-76
2024/04/07 03:03:23;;;;;;;;;;;;;;;;;;5093527;28;19915;-77
2024/04/07 03:05:48;;;;;;;;;;;;;;;;;;5076381;28;19915;-74
2024/04/07 03:08:14;;;;;;;;;;;;;;;;;;5095885;28;19920;-73
2024/04/07 03:10:40;;;;;;;;;;;;;;;;;;5097528;28;19920;-76
2024/04/07 03:13:05;;;;;;;;;;;;;;;;;;5087952;28;20026;-75
2024/04/07 03:15:30;;;;;;;;;;;;;;;;;;5097392;28;20376;-75
2024/04/07 03:17:56;;;;;;;;;;;;;;;;;;5096513;28;20360;-76
2024/04/07 03:20:21;;;;;;;;;;;;;;;;;;5078084;28;19927;-75
2024/04/07 03:22:49;;;;;;;;;;;;;;;;;;5097914;28;20026;-75
2024/04/07 03:25:16;;;;;;;;;;;;;;;;;;5096867;28;20366;-75
2024/04/07 03:27:42;;;;;;;;;;;;;;;;;;5098918;28;19953;-73
2024/04/07 03:30:07;;;;;;;;;;;;;;;;;;5096922;28;20010;-72
2024/04/07 03:32:32;;;;;;;;;;;;;;;;;;5081638;27;20021;-76
2024/04/07 03:34:58;;;;;;;;;;;;;;;;;;5082715;27;20527;-70
2024/04/07 03:37:23;;;;;;;;;;;;;;;;;;5088665;27;19924;-69
2024/04/07 03:39:50;;;;;;;;;;;;;;;;;;5082886;27;19919;-71
2024/04/07 03:42:16;;;;;;;;;;;;;;;;;;5079884;27;19922;-70
2024/04/07 03:44:41;;;;;;;;;;;;;;;;;;5100617;27;20375;-69
2024/04/07 03:47:09;;;;;;;;;;;;;;;;;;5100262;27;20556;-67
2024/04/07 03:49:36;;;;;;;;;;;;;;;;;;5073648;27;19930;-68
2024/04/07 03:52:02;;;;;;;;;;;;;;;;;;5079018;27;19919;-69
2024/04/07 03:54:30;;;;;;;;;;;;;;;;;;5080331;27;19920;-68
2024/04/07 03:56:55;;;;;;;;;;;;;;;;;;5097424;27;19930;-69
2024/04/07 03:59:21;;;;;;;;;;;;;;;;;;5078888;27;19915;-69
2024/04/07 04:01:47;;;;;;;;;;;;;;;;;;5079700;27;19919;-68
2024/04/07 04:04:12;;;;;;;;;;;;;;;;;;5073463;27;19954;-67
2024/04/07 04:06:41;;;;;;;;;;;;;;;;;;5099488;27;19920;-66
2024/04/07 04:09:09;;;;;;;;;;;;;;;;;;5099851;27;20236;-66
2024/04/07 04:11:37;;;;;;;;;;;;;;;;;;5081155;27;19927;-66
2024/04/07 04:14:03;;;;;;;;;;;;;;;;;;5088347;27;20064;-67
2024/04/07 04:16:28;;;;;;;;;;;;;;;;;;5100971;27;19943;-67
2024/04/07 04:18:59;;;;;;;;;;;;;;;;;;5079390;27;19923;-68
2024/04/07 04:21:26;;;;;;;;;;;;;;;;;;5064949;28;19929;-68
2024/04/07 04:23:54;;;;;;;;;;;;;;;;;;5080998;27;20435;-68
2024/04/07 04:26:22;;;;;;;;;;;;;;;;;;5061895;27;19968;-69
2024/04/07 04:28:53;;;;;;;;;;;;;;;;;;5083013;27;21561;-69
2024/04/07 04:31:21;;;;;;;;;;;;;;;;;;5098630;27;19920;-71
2024/04/07 04:33:49;;;;;;;;;;;;;;;;;;5075595;27;20336;-70
2024/04/07 04:36:17;;;;;;;;;;;;;;;;;;5080647;27;19920;-71
2024/04/07 04:38:42;;;;;;;;;;;;;;;;;;5079577;27;20586;-69
2024/04/07 04:41:07;;;;;;;;;;;;;;;;;;5065491;27;20318;-67
2024/04/07 04:43:33;;;;;;;;;;;;;;;;;;5096172;27;20003;-69
2024/04/07 04:46:00;;;;;;;;;;;;;;;;;;5099264;27;20162;-69
2024/04/07 04:48:29;;;;;;;;;;;;;;;;;;5072057;27;19927;-69
2024/04/07 04:50:56;;;;;;;;;;;;;;;;;;5076820;27;19926;-69
2024/04/07 04:53:22;;;;;;;;;;;;;;;;;;5078479;27;19966;-70
2024/04/07 04:55:47;;;;;;;;;;;;;;;;;;5097975;27;20049;-69
2024/04/07 04:58:12;;;;;;;;;;;;;;;;;;5063189;28;19919;-69
2024/04/07 05:00:37;;;;;;;;;;;;;;;;;;5080876;27;20002;-69
2024/04/07 05:03:06;;;;;;;;;;;;;;;;;;5079566;28;19920;-72
2024/04/07 05:05:34;;;;;;;;;;;;;;;;;;5095794;27;20340;-70
2024/04/07 05:08:02;;;;;;;;;;;;;;;;;;5100624;27;19929;-69
2024/04/07 05:10:27;;;;;;;;;;;;;;;;;;5077833;27;19923;-69
2024/04/07 05:12:55;;;;;;;;;;;;;;;;;;5075543;27;19919;-70
2024/04/07 05:15:20;;;;;;;;;;;;;;;;;;5075892;27;19919;-70
2024/04/07 05:17:46;;;;;;;;;;;;;;;;;;5056971;27;19920;-73
2024/04/07 05:20:12;;;;;;;;;;;;;;;;;;5067356;27;19932;-71
2024/04/07 05:22:37;;;;;;;;;;;;;;;;;;5096100;27;19920;-71
2024/04/07 05:28:21;;;;;;;;;;;;;;;;;;5086235;27;20005;-72
2024/04/07 05:30:52;;;;;;;;;;;;;;;;;;5075373;27;20045;-72
2024/04/07 05:33:17;;;;;;;;;;;;;;;;;;5092441;27;19980;-73
2024/04/07 05:38:58;;;;;;;;;;;;;;;;;;5096684;27;19974;-72
2024/04/07 05:41:26;;;;;;;;;;;;;;;;;;5075241;27;20010;-71
2024/04/07 05:43:51;;;;;;;;;;;;;;;;;;5072329;27;19949;-70
2024/04/07 05:46:17;;;;;;;;;;;;;;;;;;5066167;27;19911;-71
2024/04/07 05:48:42;;;;;;;;;;;;;;;;;;5070141;28;19923;-71
2024/04/07 05:51:07;;;;;;;;;;;;;;;;;;5089530;27;20008;-70
2024/04/07 05:53:35;;;;;;;;;;;;;;;;;;5094062;27;19920;-71
2024/04/07 05:56:04;;;;;;;;;;;;;;;;;;5091026;27;19924;-71
2024/04/07 05:58:29;;;;;;;;;;;;;;;;;;5064247;28;20396;-70
2024/04/07 06:00:55;;;;;;;;;;;;;;;;;;5086298;27;19940;-70
2024/04/07 06:03:25;;;;;;;;;;;;;;;;;;5087576;27;19923;-71
2024/04/07 06:05:50;;;;;;;;;;;;;;;;;;5069076;28;20835;-71
2024/04/07 06:08:16;;;;;;;;;;;;;;;;;;5070844;27;19920;-71
2024/04/07 06:10:44;;;;;;;;;;;;;;;;;;5057213;27;20061;-70
2024/04/07 06:13:09;;;;;;;;;;;;;;;;;;5067591;28;19975;-70
2024/04/07 06:15:34;;;;;;;;;;;;;;;;;;5070738;27;21479;-72
2024/04/07 06:18:00;;;;;;;;;;;;;;;;;;5087188;27;19920;-69
2024/04/07 06:20:27;;;;;;;;;;;;;;;;;;5071218;28;19938;-69
2024/04/07 06:22:53;;;;;;;;;;;;;;;;;;5095579;27;19923;-68
2024/04/07 06:25:19;;;;;;;;;;;;;;;;;;5058382;28;19943;-69
2024/04/07 06:27:44;;;;;;;;;;;;;;;;;;5060239;28;19916;-70
2024/04/07 06:30:09;;;;;;;;;;;;;;;;;;5088849;27;20421;-68
2024/04/07 06:32:38;;;;;;;;;;;;;;;;;;5084341;27;20687;-70
2024/04/07 06:35:03;;;;;;;;;;;;;;;;;;5072211;28;19941;-68
2024/04/07 06:37:28;;;;;;;;;;;;;;;;;;5058916;28;19915;-68
2024/04/07 06:39:53;;;;;;;;;;;;;;;;;;5096631;28;19941;-68
2024/04/07 06:42:19;;;;;;;;;;;;;;;;;;5087566;28;20528;-68
2024/04/07 06:44:44;;;;;;;;;;;;;;;;;;5074878;28;20005;-68
2024/04/07 06:47:12;;;;;;;;;;;;;;;;;;5091075;28;20377;-67
2024/04/07 06:49:37;;;;;;;;;;;;;;;;;;5071385;28;19941;-68
2024/04/07 06:52:03;;;;;;;;;;;;;;;;;;5075023;28;19920;-68
2024/04/07 06:54:28;;;;;;;;;;;;;;;;;;5094485;28;19916;-67
2024/04/07 06:56:53;;;;;;;;;;;;;;;;;;5071218;28;19954;-68
2024/04/07 06:59:18;;;;;;;;;;;;;;;;;;5095776;28;19916;-68
2024/04/07 07:01:46;;;;;;;;;;;;;;;;;;5075063;28;19920;-69
2024/04/07 07:04:11;;;;;;;;;;;;;;;;;;5096392;28;19927;-74
2024/04/07 07:06:37;;;;;;;;;;;;;;;;;;5079393;27;20287;-74
2024/04/07 07:09:02;;;;;;;;;;;;;;;;;;5099816;27;19920;-74
2024/04/07 07:11:28;;;;;;;;;;;;;;;;;;5074337;27;20025;-76
2024/04/07 07:13:54;;;;;;;;;;;;;;;;;;5083095;27;19912;-78
2024/04/07 07:16:20;;;;;;;;;;;;;;;;;;5100311;27;19915;-79
2024/04/07 07:18:45;;;;;;;;;;;;;;;;;;5081193;27;19927;-82
2024/04/07 07:21:10;;;;;;;;;;;;;;;;;;5078791;27;19928;-82
2024/04/07 07:23:36;;;;;;;;;;;;;;;;;;5079775;27;20247;-81
2024/04/07 07:26:02;;;;;;;;;;;;;;;;;;5101985;27;20468;-79
2024/04/07 07:28:27;;;;;;;;;;;;;;;;;;5082159;27;19916;-80
2024/04/07 07:30:53;;;;;;;;;;;;;;;;;;5079782;27;19926;-81
2024/04/07 07:33:18;;;;;;;;;;;;;;;;;;5097305;27;20452;-77
2024/04/07 07:35:43;;;;;;;;;;;;;;;;;;5081833;27;19915;-81
2024/04/07 07:38:09;;;;;;;;;;;;;;;;;;5075758;27;20078;-78
2024/04/07 07:40:34;;;;;;;;;;;;;;;;;;5097122;27;19919;-77
2024/04/07 07:42:59;;;;;;;;;;;;;;;;;;5079710;27;19920;-80
2024/04/07 07:45:24;;;;;;;;;;;;;;;;;;5097277;27;19915;-79
2024/04/07 07:47:53;;;;;;;;;;;;;;;;;;5099018;27;19927;-78
2024/04/07 07:50:18;;;;;;;;;;;;;;;;;;5061945;27;20902;-76
2024/04/07 07:52:43;;;;;;;;;;;;;;;;;;5080004;27;19949;-75
2024/04/07 07:55:09;;;;;;;;;;;;;;;;;;5099501;27;19916;-74
2024/04/07 07:57:34;;;;;;;;;;;;;;;;;;5098972;27;20354;-76
2024/04/07 07:59:59;;;;;;;;;;;;;;;;;;5067881;27;19944;-78
2024/04/07 08:02:25;;;;;;;;;;;;;;;;;;5064137;27;20750;-76
2024/04/07 08:04:52;;;;;;;;;;;;;;;;;;5083529;27;20502;-80
2024/04/07 08:07:18;;;;;;;;;;;;;;;;;;5060194;27;20034;-74
2024/04/07 08:09:43;;;;;;;;;;;;;;;;;;5093402;27;19923;-78
2024/04/07 08:12:09;;;;;;;;;;;;;;;;;;5074885;27;20413;-75
2024/04/07 08:14:35;;;;;;;;;;;;;;;;;;5081192;27;19957;-74
2024/04/07 08:17:00;;;;;;;;;;;;;;;;;;5100737;27;19923;-77
2024/04/07 08:19:25;;;;;;;;;;;;;;;;;;5097724;27;19928;-76
2024/04/07 08:21:50;;;;;;;;;;;;;;;;;;5101166;27;19916;-77
2024/04/07 08:24:17;;;;;;;;;;;;;;;;;;5098263;27;19916;-75
2024/04/07 08:26:42;;;;;;;;;;;;;;;;;;5089253;27;20382;-75
2024/04/07 08:29:07;;;;;;;;;;;;;;;;;;5099654;27;19919;-77
2024/04/07 08:31:36;;;;;;;;;;;;;;;;;;5097762;27;19930;-76
2024/04/07 08:34:01;;;;;;;;;;;;;;;;;;5098855;27;19919;-74
2024/04/07 08:36:26;;;;;;;;;;;;;;;;;;5063422;27;19946;-74
2024/04/07 08:38:52;;;;;;;;;;;;;;;;;;5079725;27;19915;-74
2024/04/07 08:41:17;;;;;;;;;;;;;;;;;;5093708;27;19923;-75
2024/04/07 08:43:45;;;;;;;;;;;;;;;;;;5091884;27;19961;-75
2024/04/07 08:46:11;;;;;;;;;;;;;;;;;;5078276;27;19923;-74
2024/04/07 08:48:36;;;;;;;;;;;;;;;;;;5093749;27;20506;-75
2024/04/07 08:51:01;;;;;;;;;;;;;;;;;;5097421;27;20627;-73
2024/04/07 08:53:27;;;;;;;;;;;;;;;;;;5071166;27;20274;-74
2024/04/07 08:55:52;;;;;;;;;;;;;;;;;;5096633;27;19951;-74
2024/04/07 08:58:17;;;;;;;;;;;;;;;;;;5072143;27;19919;-74
2024/04/07 09:00:46;;;;;;;;;;;;;;;;;;5077743;27;20470;-75
2024/04/07 09:03:11;;;;;;;;;;;;;;;;;;5096086;27;19922;-73
2024/04/07 09:05:37;;;;;;;;;;;;;;;;;;5079150;27;19911;-76
2024/04/07 09:08:03;;;;;;;;;;;;;;;;;;5061987;27;20042;-74
2024/04/07 09:10:30;;;;;;;;;;;;;;;;;;5095942;27;20380;-76
2024/04/07 09:12:56;;;;;;;;;;;;;;;;;;5090709;27;19920;-72
2024/04/07 09:15:21;;;;;;;;;;;;;;;;;;5099217;27;20354;-72
2024/04/07 09:17:46;;;;;;;;;;;;;;;;;;5099467;27;19927;-72
2024/04/07 09:20:14;;;;;;;;;;;;;;;;;;5081145;28;20054;-73
2024/04/07 09:22:40;;;;;;;;;;;;;;;;;;5094787;27;19915;-73
2024/04/07 09:25:05;;;;;;;;;;;;;;;;;;5077920;27;20113;-72
2024/04/07 09:27:30;;;;;;;;;;;;;;;;;;5080221;27;19919;-73
2024/04/07 09:29:55;;;;;;;;;;;;;;;;;;5093840;27;20089;-73
2024/04/07 09:32:21;;;;;;;;;;;;;;;;;;5076930;27;19988;-72
2024/04/07 09:34:47;;;;;;;;;;;;;;;;;;5070725;28;20021;-71
2024/04/07 09:37:12;;;;;;;;;;;;;;;;;;5078940;27;19918;-74
2024/04/07 09:39:37;;;;;;;;;;;;;;;;;;5095116;27;20007;-75
2024/04/07 09:42:03;;;;;;;;;;;;;;;;;;5077680;27;19941;-74
2024/04/07 09:44:28;;;;;;;;;;;;;;;;;;5073309;27;19968;-77
2024/04/07 09:46:53;;;;;;;;;;;;;;;;;;5077561;27;20139;-73
2024/04/07 09:49:19;;;;;;;;;;;;;;;;;;5096150;27;19915;-73
2024/04/07 09:51:44;;;;;;;;;;;;;;;;;;5076384;28;20290;-74
2024/04/07 09:54:09;;;;;;;;;;;;;;;;;;5076601;27;20288;-74
2024/04/07 09:56:35;;;;;;;;;;;;;;;;;;5062762;27;19973;-76
2024/04/07 09:59:00;;;;;;;;;;;;;;;;;;5097623;27;19916;-78
2024/04/07 10:01:31;;;;;;;;;;;;;;;;;;5080035;27;19919;-75
2024/04/07 10:03:56;;;;;;;;;;;;;;;;;;5076314;28;19931;-75
2024/04/07 10:06:21;;;;;;;;;;;;;;;;;;5080333;27;19915;-74
2024/04/07 10:08:47;;;;;;;;;;;;;;;;;;5065160;28;19999;-77
2024/04/07 10:11:12;;;;;;;;;;;;;;;;;;5079694;28;19945;-80
2024/04/07 10:13:37;;;;;;;;;;;;;;;;;;5098585;27;19920;-76
2024/04/07 10:16:03;;;;;;;;;;;;;;;;;;5081127;27;19923;-75
2024/04/07 10:18:28;;;;;;;;;;;;;;;;;;5081146;28;20583;-73
2024/04/07 10:20:53;;;;;;;;;;;;;;;;;;5080760;27;20449;-80
2024/04/07 10:23:19;;;;;;;;;;;;;;;;;;5077603;28;19922;-76
2024/04/07 10:25:44;;;;;;;;;;;;;;;;;;5061531;27;19920;-74
2024/04/07 10:28:15;;;;;;;;;;;;;;;;;;5096371;28;19939;-77
2024/04/07 10:30:40;;;;;;;;;;;;;;;;;;5078483;28;19970;-72
2024/04/07 10:33:06;;;;;;;;;;;;;;;;;;5076857;28;19994;-77
2024/04/07 10:35:31;;;;;;;;;;;;;;;;;;5075337;28;19950;-76
2024/04/07 10:37:56;;;;;;;;;;;;;;;;;;5061307;28;19916;-79
2024/04/07 10:40:22;;;;;;;;;;;;;;;;;;5078401;27;20650;-75
2024/04/07 10:42:47;;;;;;;;;;;;;;;;;;5101432;27;19963;-78
2024/04/07 10:45:12;;;;;;;;;;;;;;;;;;5083299;28;20010;-76
2024/04/07 10:47:38;;;;;;;;;;;;;;;;;;5082649;27;20036;-78
2024/04/07 10:50:04;;;;;;;;;;;;;;;;;;5067885;27;19953;-77
2024/04/07 10:52:32;;;;;;;;;;;;;;;;;;5080009;27;20302;-78
2024/04/07 10:54:57;;;;;;;;;;;;;;;;;;5081217;27;19915;-74
2024/04/07 10:57:22;;;;;;;;;;;;;;;;;;5082721;27;19916;-79
2024/04/07 10:59:48;;;;;;;;;;;;;;;;;;5065210;27;19920;-78
2024/04/07 11:02:14;;;;;;;;;;;;;;;;;;5081550;27;19920;-76
2024/04/07 11:04:39;;;;;;;;;;;;;;;;;;5061385;27;19920;-72
2024/04/07 11:07:04;;;;;;;;;;;;;;;;;;5079922;27;20295;-78
2024/04/07 11:09:30;;;;;;;;;;;;;;;;;;5081000;27;19954;-78
2024/04/07 11:11:55;;;;;;;;;;;;;;;;;;5083496;27;20695;-74
2024/04/07 11:14:21;;;;;;;;;;;;;;;;;;5078515;27;19931;-75
2024/04/07 11:16:46;;;;;;;;;;;;;;;;;;5093947;27;19926;-77
2024/04/07 11:19:11;;;;;;;;;;;;;;;;;;5097712;27;20586;-79
2024/04/07 11:21:36;;;;;;;;;;;;;;;;;;5098017;27;19919;-79
2024/04/07 11:24:02;;;;;;;;;;;;;;;;;;5099920;27;20454;-77
2024/04/07 11:26:27;;;;;;;;;;;;;;;;;;5078399;27;19931;-78
2024/04/07 11:28:52;;;;;;;;;;;;;;;;;;5078964;27;20331;-80
2024/04/07 11:31:18;;;;;;;;;;;;;;;;;;5081059;27;19915;-77
2024/04/07 11:33:43;;;;;;;;;;;;;;;;;;5072250;28;20485;-71
2024/04/07 11:36:09;;;;;;;;;;;;;;;;;;5062701;27;20469;-75
2024/04/07 11:38:34;;;;;;;;;;;;;;;;;;5091853;27;20010;-80
2024/04/07 11:40:59;;;;;;;;;;;;;;;;;;5096765;27;20275;-75
2024/04/07 11:43:25;;;;;;;;;;;;;;;;;;5079876;27;20091;-80
2024/04/07 11:45:52;;;;;;;;;;;;;;;;;;5083133;27;20434;-76
2024/04/07 11:48:18;;;;;;;;;;;;;;;;;;5077981;27;19916;-78
2024/04/07 11:50:43;;;;;;;;;;;;;;;;;;5080739;27;19919;-78
2024/04/07 11:53:11;;;;;;;;;;;;;;;;;;5098373;27;20358;-77
2024/04/07 11:55:39;;;;;;;;;;;;;;;;;;5069552;27;19926;-75
2024/04/07 11:58:08;;;;;;;;;;;;;;;;;;5078043;27;19915;-73
2024/04/07 12:00:33;;;;;;;;;;;;;;;;;;5095778;27;19920;-75
2024/04/07 12:02:59;;;;;;;;;;;;;;;;;;5051047;28;19920;-72
2024/04/07 12:05:24;;;;;;;;;;;;;;;;;;5097587;27;19919;-80
2024/04/07 12:07:50;;;;;;;;;;;;;;;;;;5070253;28;20023;-75
2024/04/07 12:10:15;;;;;;;;;;;;;;;;;;5093969;27;19927;-73
2024/04/07 12:12:40;;;;;;;;;;;;;;;;;;5079740;27;19923;-76
2024/04/07 12:15:05;;;;;;;;;;;;;;;;;;5061279;27;19920;-76
2024/04/07 12:17:31;;;;;;;;;;;;;;;;;;5080874;27;19915;-77
2024/04/07 12:19:56;;;;;;;;;;;;;;;;;;5103063;27;20650;-76
2024/04/07 12:22:21;;;;;;;;;;;;;;;;;;5101443;27;20010;-78
2024/04/07 12:24:47;;;;;;;;;;;;;;;;;;5098829;27;20457;-79
2024/04/07 12:27:12;;;;;;;;;;;;;;;;;;5077677;27;20006;-80
2024/04/07 12:29:39;;;;;;;;;;;;;;;;;;5094898;27;19924;-73
2024/04/07 12:32:05;;;;;;;;;;;;;;;;;;5078583;27;19981;-81
2024/04/07 12:34:30;;;;;;;;;;;;;;;;;;5076999;27;20378;-74
2024/04/07 12:36:55;;;;;;;;;;;;;;;;;;5096919;27;19926;-79
2024/04/07 12:39:21;;;;;;;;;;;;;;;;;;5077022;27;20185;-74
2024/04/07 12:41:49;;;;;;;;;;;;;;;;;;5063657;27;19930;-72
2024/04/07 12:44:14;;;;;;;;;;;;;;;;;;5077836;27;19915;-78
2024/04/07 12:46:40;;;;;;;;;;;;;;;;;;5099441;27;20620;-76
2024/04/07 12:49:05;;;;;;;;;;;;;;;;;;5095050;27;20465;-78
2024/04/07 12:51:30;;;;;;;;;;;;;;;;;;5093963;27;20314;-76
2024/04/07 12:53:56;;;;;;;;;;;;;;;;;;5079409;27;19973;-73
2024/04/07 12:56:21;;;;;;;;;;;;;;;;;;5081350;27;19926;-74
2024/04/07 12:58:46;;;;;;;;;;;;;;;;;;5092208;27;19990;-75
2024/04/07 13:01:11;;;;;;;;;;;;;;;;;;5094954;27;20542;-76
2024/04/07 13:03:37;;;;;;;;;;;;;;;;;;5076023;27;20325;-77
2024/04/07 13:06:02;;;;;;;;;;;;;;;;;;5072167;27;19931;-77
2024/04/07 13:08:27;;;;;;;;;;;;;;;;;;5097593;27;19919;-75
2024/04/07 13:10:53;;;;;;;;;;;;;;;;;;5093470;27;19954;-76
2024/04/07 13:13:18;;;;;;;;;;;;;;;;;;5077054;27;20589;-74
2024/04/07 13:15:46;;;;;;;;;;;;;;;;;;5095364;27;19920;-76
2024/04/07 13:18:11;;;;;;;;;;;;;;;;;;5076434;27;20063;-76
2024/04/07 13:20:37;;;;;;;;;;;;;;;;;;5095552;27;20380;-75
2024/04/07 13:23:02;;;;;;;;;;;;;;;;;;5094283;27;19955;-78
2024/04/07 13:25:27;;;;;;;;;;;;;;;;;;5095771;27;20029;-78
2024/04/07 13:27:53;;;;;;;;;;;;;;;;;;5094634;27;19920;-77
2024/04/07 13:30:18;;;;;;;;;;;;;;;;;;5076082;27;19920;-76
2024/04/07 13:32:43;;;;;;;;;;;;;;;;;;5077920;27;20508;-77
2024/04/07 13:35:10;;;;;;;;;;;;;;;;;;5077619;27;19916;-78
2024/04/07 13:37:35;;;;;;;;;;;;;;;;;;5067152;27;20455;-78
2024/04/07 13:40:01;;;;;;;;;;;;;;;;;;5086517;27;20400;-73
2024/04/07 13:42:26;;;;;;;;;;;;;;;;;;5066894;28;19926;-74
2024/04/07 13:44:51;;;;;;;;;;;;;;;;;;5079618;27;19927;-78
2024/04/07 13:47:18;;;;;;;;;;;;;;;;;;5097042;27;19927;-77
2024/04/07 13:49:45;;;;;;;;;;;;;;;;;;5078106;27;19923;-79
2024/04/07 13:52:11;;;;;;;;;;;;;;;;;;5058987;27;20146;-78
2024/04/07 13:54:40;;;;;;;;;;;;;;;;;;5090414;27;20198;-73
2024/04/07 13:57:05;;;;;;;;;;;;;;;;;;5067577;28;20091;-76
2024/04/07 13:59:33;;;;;;;;;;;;;;;;;;5083670;27;20290;-76
2024/04/07 14:01:59;;;;;;;;;;;;;;;;;;5078646;28;19915;-74
2024/04/07 14:04:24;;;;;;;;;;;;;;;;;;5077503;27;19923;-76
2024/04/07 14:06:49;;;;;;;;;;;;;;;;;;5081189;27;20338;-80
2024/04/07 14:09:14;;;;;;;;;;;;;;;;;;5057018;28;19923;-75
2024/04/07 14:11:40;;;;;;;;;;;;;;;;;;5061790;28;19974;-76
2024/04/07 14:14:08;;;;;;;;;;;;;;;;;;5080007;27;20006;-76
2024/04/07 14:16:42;;;;;;;;;;;;;;;;;;5096103;27;19920;-75
2024/04/07 14:19:07;;;;;;;;;;;;;;;;;;5098205;27;19916;-77
2024/04/07 14:21:32;;;;;;;;;;;;;;;;;;5089830;27;20409;-75
2024/04/07 14:23:58;;;;;;;;;;;;;;;;;;5093061;27;20018;-76
2024/04/07 14:26:23;;;;;;;;;;;;;;;;;;5094662;27;19920;-73
2024/04/07 14:28:50;;;;;;;;;;;;;;;;;;5075927;28;20298;-74
2024/04/07 14:31:16;;;;;;;;;;;;;;;;;;5098243;27;20337;-76
2024/04/07 14:33:41;;;;;;;;;;;;;;;;;;5094760;28;19912;-76
2024/04/07 14:36:06;;;;;;;;;;;;;;;;;;5093373;28;19991;-78
2024/04/07 14:38:32;;;;;;;;;;;;;;;;;;5075795;28;20566;-78
2024/04/07 14:40:57;;;;;;;;;;;;;;;;;;5076858;28;21065;-79
2024/04/07 14:43:22;;;;;;;;;;;;;;;;;;5085216;28;20002;-78
2024/04/07 14:45:48;;;;;;;;;;;;;;;;;;5091715;28;20026;-77
2024/04/07 14:48:13;;;;;;;;;;;;;;;;;;5092683;28;19919;-80
2024/04/07 14:50:39;;;;;;;;;;;;;;;;;;5093110;28;19936;-75
2024/04/07 14:53:07;;;;;;;;;;;;;;;;;;5091811;28;19966;-76
2024/04/07 14:55:35;;;;;;;;;;;;;;;;;;5077098;28;19920;-76
2024/04/07 14:58:00;;;;;;;;;;;;;;;;;;5091131;28;19916;-76
2024/04/07 15:00:28;;;;;;;;;;;;;;;;;;5092696;28;19919;-74
2024/04/07 15:02:54;;;;;;;;;;;;;;;;;;5097258;28;19922;-72
2024/04/07 15:05:19;;;;;;;;;;;;;;;;;;5078390;28;19920;-76
2024/04/07 15:07:45;;;;;;;;;;;;;;;;;;5080091;28;19955;-77
2024/04/07 15:10:10;;;;;;;;;;;;;;;;;;5096859;28;20011;-76
2024/04/07 15:12:35;;;;;;;;;;;;;;;;;;5075762;28;20387;-75
2024/04/07 15:15:01;;;;;;;;;;;;;;;;;;5096668;28;20373;-72
2024/04/07 15:17:29;;;;;;;;;;;;;;;;;;5077590;28;19916;-79
2024/04/07 15:19:54;;;;;;;;;;;;;;;;;;5077549;28;20426;-77
2024/04/07 15:22:21;;;;;;;;;;;;;;;;;;5098228;28;20361;-77
2024/04/07 15:24:46;;;;;;;;;;;;;;;;;;5096468;28;19919;-79
2024/04/07 15:27:11;;;;;;;;;;;;;;;;;;5100583;27;19915;-78
2024/04/07 15:29:37;;;;;;;;;;;;;;;;;;5098941;27;19979;-78
2024/04/07 15:32:02;;;;;;;;;;;;;;;;;;5083903;27;19922;-81
2024/04/07 15:34:27;;;;;;;;;;;;;;;;;;5063704;27;19920;-81
2024/04/07 15:36:53;;;;;;;;;;;;;;;;;;5084841;27;20130;-81
2024/04/07 15:39:18;;;;;;;;;;;;;;;;;;5083049;27;20974;-79
2024/04/07 15:41:45;;;;;;;;;;;;;;;;;;5102315;27;19939;-77
2024/04/07 15:44:11;;;;;;;;;;;;;;;;;;5080352;27;19942;-75
2024/04/07 15:46:36;;;;;;;;;;;;;;;;;;5100050;27;19960;-79
2024/04/07 15:49:01;;;;;;;;;;;;;;;;;;5083054;27;19943;-79
2024/04/07 15:51:26;;;;;;;;;;;;;;;;;;5103733;27;20296;-71
2024/04/07 15:53:52;;;;;;;;;;;;;;;;;;5102161;27;19915;-77
2024/04/07 15:56:17;;;;;;;;;;;;;;;;;;5084739;27;20043;-76
2024/04/07 15:58:42;;;;;;;;;;;;;;;;;;5102600;27;20058;-79
2024/04/07 16:01:08;;;;;;;;;;;;;;;;;;5063662;27;19916;-81
2024/04/07 16:03:33;;;;;;;;;;;;;;;;;;5065915;27;19915;-77
2024/04/07 16:05:58;;;;;;;;;;;;;;;;;;5084433;27;20415;-78
2024/04/07 16:08:24;;;;;;;;;;;;;;;;;;5101362;27;20358;-80
2024/04/07 16:10:49;;;;;;;;;;;;;;;;;;5093142;27;20407;-80
2024/04/07 16:13:14;;;;;;;;;;;;;;;;;;5101074;27;19920;-77
2024/04/07 16:15:40;;;;;;;;;;;;;;;;;;5097523;27;19942;-75
2024/04/07 16:18:05;;;;;;;;;;;;;;;;;;5100809;27;20278;-80
2024/04/07 16:20:30;;;;;;;;;;;;;;;;;;5084002;27;20310;-76
2024/04/07 16:22:55;;;;;;;;;;;;;;;;;;5102603;27;19951;-79
2024/04/07 16:25:21;;;;;;;;;;;;;;;;;;5064472;27;19964;-80
2024/04/07 16:27:46;;;;;;;;;;;;;;;;;;5081589;27;19924;-80
2024/04/07 16:30:11;;;;;;;;;;;;;;;;;;5099810;27;20748;-78
2024/04/07 16:32:36;;;;;;;;;;;;;;;;;;5103471;27;19920;-80
2024/04/07 16:35:02;;;;;;;;;;;;;;;;;;5100285;27;19973;-80
2024/04/07 16:37:28;;;;;;;;;;;;;;;;;;5082700;27;19916;-79
2024/04/07 16:39:53;;;;;;;;;;;;;;;;;;5101777;27;19916;-81
2024/04/07 16:42:18;;;;;;;;;;;;;;;;;;5083130;27;20400;-80
2024/04/07 16:44:47;;;;;;;;;;;;;;;;;;5084629;27;19912;-80
2024/04/07 16:47:12;;;;;;;;;;;;;;;;;;5094988;27;19919;-78
2024/04/07 16:49:37;;;;;;;;;;;;;;;;;;5076956;27;20267;-80